Time;durP1;ratioP1;P1;durP2;ratioP2;P2;SDS_P1;SDS_P2;PMS_P1;PMS_P2;Temp;Humidity;BMP_temperature;BMP_pressure;BME280_temperature;BME280_humidity;BME280_pressure;Samples;Min_cycle;Max_cycle;Signal;HPM_P1;HPM_P2
2022/09/22 00:02:13;;;;;;;;;;;;;;;11.21;100.00;98777.69;1650947;85;24377;-90
2022/09/22 00:04:39;;;;;;;;;;;;;;;11.16;100.00;98784.55;1646490;85;20182;-91
2022/09/22 00:07:05;;;;;;;;;;;;;;;11.15;100.00;98780.70;1649952;86;20822;-91
2022/09/22 00:09:32;;;;;;;;;;;;;;;11.15;100.00;98778.94;1675900;85;20261;-91
2022/09/22 00:12:01;;;;;;;;;;;;;;;11.13;100.00;98780.80;1654875;85;26020;-90
2022/09/22 00:14:27;;;;;;;;;;;;;;;11.14;100.00;98777.72;1673535;84;24806;-91
2022/09/22 00:17:01;;;;;;;;;;;;;;;11.14;100.00;98781.64;1661963;85;20273;-90
2022/09/22 00:19:37;;;;;;;;;;;;;;;11.13;100.00;98782.11;1663660;84;25081;-90
2022/09/22 00:22:04;;;;;;;;;;;;;;;11.15;100.00;98783.33;1666285;84;22062;-90
2022/09/22 00:24:30;;;;;;;;;;;;;;;11.18;100.00;98781.83;1665923;86;26122;-91
2022/09/22 00:26:57;;;;;;;;;;;;;;;11.19;100.00;98783.02;1666199;86;24494;-90
2022/09/22 00:29:31;;;;;;;;;;;;;;;11.20;100.00;98783.86;1666978;84;20540;-90
2022/09/22 00:32:03;;;;;;;;;;;;;;;11.12;100.00;98762.59;1666447;86;24889;-90
2022/09/22 00:34:48;;;;;;;;;;;;;;;11.24;100.00;98785.33;1806345;77;20228;-91
2022/09/22 00:37:15;;;;;;;;;;;;;;;11.19;100.00;98776.47;1767589;79;22765;-91
2022/09/22 00:39:43;;;;;;;;;;;;;;;11.18;100.00;98783.14;1770580;79;26050;-92
2022/09/22 00:42:11;;;;;;;;;;;;;;;11.16;100.00;98778.00;1767776;79;24648;-92
2022/09/22 00:44:40;;;;;;;;;;;;;;;11.15;100.00;98771.54;1746936;80;20191;-91
2022/09/22 00:47:08;;;;;;;;;;;;;;;11.11;100.00;98769.61;1771287;79;25114;-91
2022/09/22 00:49:55;;;;;;;;;;;;;;;11.12;100.00;98773.91;1769271;79;22238;-91
2022/09/22 00:52:41;;;;;;;;;;;;;;;11.08;100.00;98769.80;1769382;79;25975;-87
2022/09/22 00:55:17;;;;;;;;;;;;;;;11.09;100.00;98773.25;1685163;83;24552;-87
2022/09/22 00:57:45;;;;;;;;;;;;;;;11.07;100.00;98776.47;1650868;85;20251;-87
2022/09/22 01:00:11;;;;;;;;;;;;;;;11.04;100.00;98772.26;1682521;81;25183;-87
2022/09/22 01:02:37;;;;;;;;;;;;;;;11.06;100.00;98774.78;1696495;83;22040;-87
2022/09/22 01:05:04;;;;;;;;;;;;;;;11.06;100.00;98772.16;1733524;81;25943;-87
2022/09/22 01:07:32;;;;;;;;;;;;;;;11.05;100.00;98773.94;1728433;82;24539;-87
2022/09/22 01:09:58;;;;;;;;;;;;;;;11.06;100.00;98772.16;1694961;82;20231;-86
2022/09/22 01:12:27;;;;;;;;;;;;;;;11.03;100.00;98769.27;1688915;82;23861;-87
2022/09/22 01:15:03;;;;;;;;;;;;;;;11.03;100.00;98765.80;1693610;82;22146;-87
2022/09/22 01:17:34;;;;;;;;;;;;;;;11.03;100.00;98765.80;1692138;82;26915;-87
2022/09/22 01:20:17;;;;;;;;;;;;;;;11.05;100.00;98763.47;1703228;82;24451;-87
2022/09/22 01:22:57;;;;;;;;;;;;;;;11.05;100.00;98763.93;1665231;82;20453;-87
2022/09/22 01:25:37;;;;;;;;;;;;;;;11.03;100.00;98764.02;1706877;82;24985;-88
2022/09/22 01:28:10;;;;;;;;;;;;;;;11.03;100.00;98760.09;1694247;82;22087;-87
2022/09/22 01:30:49;;;;;;;;;;;;;;;10.99;100.00;98768.27;1721616;81;25831;-88
2022/09/22 01:33:35;;;;;;;;;;;;;;;10.94;100.00;98763.34;1704223;82;24481;-87
2022/09/22 01:36:20;;;;;;;;;;;;;;;10.91;100.00;98771.38;1689581;82;20150;-87
2022/09/22 01:38:51;;;;;;;;;;;;;;;10.93;100.00;98759.03;1766294;79;24346;-86
2022/09/22 01:41:19;;;;;;;;;;;;;;;10.97;100.00;98757.03;1762752;80;22865;-87
2022/09/22 01:43:59;;;;;;;;;;;;;;;10.97;100.00;98760.50;1768619;79;25582;-86
2022/09/22 01:46:31;;;;;;;;;;;;;;;10.92;100.00;98756.04;1762956;79;24400;-87
2022/09/22 01:48:59;;;;;;;;;;;;;;;10.92;100.00;98756.04;1769511;79;20158;-87
2022/09/22 01:51:27;;;;;;;;;;;;;;;10.92;100.00;98753.42;1767539;79;24534;-87
2022/09/22 01:53:55;;;;;;;;;;;;;;;10.96;100.00;98750.98;1764754;79;21985;-87
2022/09/22 01:56:22;;;;;;;;;;;;;;;11.01;100.00;98750.21;1767179;79;26783;-87
2022/09/22 01:58:54;;;;;;;;;;;;;;;11.00;100.00;98751.61;1769189;79;24426;-90
2022/09/22 02:01:27;;;;;;;;;;;;;;;11.02;100.00;98747.12;1759154;79;20210;-90
2022/09/22 02:04:01;;;;;;;;;;;;;;;11.04;100.00;98746.06;1764690;79;24546;-90
2022/09/22 02:06:37;;;;;;;;;;;;;;;10.95;100.00;98746.69;1756254;79;21459;-90
2022/09/22 02:09:04;;;;;;;;;;;;;;;10.84;100.00;98746.09;1758755;79;26156;-90
2022/09/22 02:11:30;;;;;;;;;;;;;;;10.79;100.00;98744.71;1746850;80;24441;-90
2022/09/22 02:13:57;;;;;;;;;;;;;;;10.86;100.00;98744.66;1771142;79;20822;-90
2022/09/22 02:16:23;;;;;;;;;;;;;;;10.96;100.00;98740.52;1748349;79;24310;-89
2022/09/22 02:18:55;;;;;;;;;;;;;;;11.04;100.00;98734.28;1775792;79;21962;-90
2022/09/22 02:21:22;;;;;;;;;;;;;;;10.93;100.00;98733.31;1764940;79;26120;-89
2022/09/22 02:23:48;;;;;;;;;;;;;;;10.94;100.00;98733.69;1727381;81;24531;-90
2022/09/22 02:26:22;;;;;;;;;;;;;;;10.98;100.00;98732.06;1725204;81;20187;-89
2022/09/22 02:28:46;;;;;;;;;;;;;;;11.05;100.00;98734.66;1694687;82;24472;-90
2022/09/22 02:31:13;;;;;;;;;;;;;;;11.03;100.00;98733.06;1717291;81;21976;-90
2022/09/22 02:33:39;;;;;;;;;;;;;;;11.02;100.00;98738.77;1696172;83;26001;-90
2022/09/22 02:36:13;;;;;;;;;;;;;;;11.06;100.00;98746.81;1727599;80;25164;-89
2022/09/22 02:38:50;;;;;;;;;;;;;;;11.12;100.00;98745.56;1725438;81;20159;-89
2022/09/22 02:41:22;;;;;;;;;;;;;;;11.15;100.00;98742.26;1721445;82;24332;-89
2022/09/22 02:43:55;;;;;;;;;;;;;;;11.18;100.00;98749.90;1725690;82;22735;-89
2022/09/22 02:46:24;;;;;;;;;;;;;;;11.23;100.00;98747.00;1721725;81;26103;-89
2022/09/22 02:48:52;;;;;;;;;;;;;;;11.22;100.00;98741.38;1717087;82;24491;-89
2022/09/22 02:51:18;;;;;;;;;;;;;;;11.19;100.00;98738.48;1716748;81;20162;-88
2022/09/22 02:53:47;;;;;;;;;;;;;;;11.12;100.00;98738.55;1716796;83;25174;-89
2022/09/22 02:56:21;;;;;;;;;;;;;;;11.18;100.00;98738.11;1723102;81;22768;-89
2022/09/22 02:58:47;;;;;;;;;;;;;;;11.14;100.00;98735.80;1720456;82;26102;-89
2022/09/22 03:01:15;;;;;;;;;;;;;;;11.11;100.00;98739.48;1717364;82;20267;-89
2022/09/22 03:03:47;;;;;;;;;;;;;;;11.09;100.00;98740.05;1722623;82;20252;-89
2022/09/22 03:06:12;;;;;;;;;;;;;;;11.19;100.00;98744.19;1714640;83;24337;-89
2022/09/22 03:08:38;;;;;;;;;;;;;;;11.26;100.00;98746.30;1722918;82;20914;-89
2022/09/22 03:11:12;;;;;;;;;;;;;;;11.26;100.00;98744.16;1723627;80;23918;-89
2022/09/22 03:13:36;;;;;;;;;;;;;;;11.31;100.00;98752.54;1716745;82;24472;-89
2022/09/22 03:16:02;;;;;;;;;;;;;;;11.25;100.00;98748.55;1695622;83;20248;-86
2022/09/22 03:18:28;;;;;;;;;;;;;;;11.21;100.00;98752.80;1718225;82;20827;-87
2022/09/22 03:21:05;;;;;;;;;;;;;;;11.17;100.00;98753.48;1717024;82;20198;-87
2022/09/22 03:23:33;;;;;;;;;;;;;;;11.18;100.00;98751.20;1712684;82;26049;-87
2022/09/22 03:26:00;;;;;;;;;;;;;;;11.18;100.00;98751.20;1715268;82;24552;-85
2022/09/22 03:28:26;;;;;;;;;;;;;;;11.12;100.00;98754.73;1720139;82;20168;-85
2022/09/22 03:30:58;;;;;;;;;;;;;;;11.07;100.00;98751.12;1716448;82;20861;-85
2022/09/22 03:33:27;;;;;;;;;;;;;;;11.00;100.00;98749.00;1718085;82;22007;-85
2022/09/22 03:35:53;;;;;;;;;;;;;;;10.94;100.00;98741.55;1675575;83;25904;-85
2022/09/22 03:38:19;;;;;;;;;;;;;;;10.92;100.00;98746.88;1678536;83;20318;-85
2022/09/22 03:40:49;;;;;;;;;;;;;;;10.90;100.00;98740.92;1676169;84;20286;-85
2022/09/22 03:43:16;;;;;;;;;;;;;;;10.91;100.00;98744.72;1675034;84;24263;-85
2022/09/22 03:45:42;;;;;;;;;;;;;;;10.95;100.00;98744.53;1670357;85;22053;-85
2022/09/22 03:48:08;;;;;;;;;;;;;;;10.95;100.00;98742.77;1678271;84;20943;-85
2022/09/22 03:50:34;;;;;;;;;;;;;;;11.00;100.00;98750.30;1671804;85;24798;-85
2022/09/22 03:53:06;;;;;;;;;;;;;;;11.00;100.00;98748.53;1720916;82;21123;-85
2022/09/22 03:55:33;;;;;;;;;;;;;;;10.98;100.00;98754.33;1724383;81;24735;-85
2022/09/22 03:57:59;;;;;;;;;;;;;;;11.01;100.00;98753.30;1722626;82;22727;-85
2022/09/22 04:00:27;;;;;;;;;;;;;;;11.00;100.00;98754.23;1706015;82;20937;-85
2022/09/22 04:02:57;;;;;;;;;;;;;;;10.98;100.00;98747.78;1723348;81;25256;-90
2022/09/22 04:05:26;;;;;;;;;;;;;;;10.96;100.00;98749.68;1699621;82;21055;-90
2022/09/22 04:08:03;;;;;;;;;;;;;;;10.97;100.00;98749.19;1724380;82;24497;-90
2022/09/22 04:10:33;;;;;;;;;;;;;;;11.01;100.00;98738.89;1722114;82;22162;-90
2022/09/22 04:12:58;;;;;;;;;;;;;;;11.00;100.00;98745.91;1725051;82;26086;-89
2022/09/22 04:15:24;;;;;;;;;;;;;;;10.95;100.00;98745.84;1728086;82;20258;-90
2022/09/22 04:17:57;;;;;;;;;;;;;;;10.87;100.00;98751.11;1693159;83;20182;-90
2022/09/22 04:20:23;;;;;;;;;;;;;;;10.85;100.00;98749.55;1682624;84;24397;-90
2022/09/22 04:22:49;;;;;;;;;;;;;;;10.85;100.00;98749.55;1679285;84;20327;-90
2022/09/22 04:25:15;;;;;;;;;;;;;;;10.87;100.00;98747.19;1687125;84;21029;-90
2022/09/22 04:27:43;;;;;;;;;;;;;;;10.94;100.00;98746.78;1667241;85;20818;-85
2022/09/22 04:30:10;;;;;;;;;;;;;;;10.98;100.00;98743.85;1672149;84;20180;-85
2022/09/22 04:32:38;;;;;;;;;;;;;;;11.00;100.00;98747.69;1673574;85;24393;-86
2022/09/22 04:35:05;;;;;;;;;;;;;;;11.01;100.00;98743.66;1689307;82;22112;-86
2022/09/22 04:37:30;;;;;;;;;;;;;;;10.99;100.00;98744.23;1700957;82;25935;-86
2022/09/22 04:39:58;;;;;;;;;;;;;;;10.99;100.00;98744.69;1761900;79;20287;-86
2022/09/22 04:42:24;;;;;;;;;;;;;;;10.98;100.00;98745.16;1764050;79;20253;-86
2022/09/22 04:44:50;;;;;;;;;;;;;;;11.01;100.00;98755.45;1763169;79;24552;-86
2022/09/22 04:47:17;;;;;;;;;;;;;;;11.02;100.00;98754.98;1765806;79;22093;-86
2022/09/22 04:49:43;;;;;;;;;;;;;;;11.03;100.00;98753.55;1764306;79;25972;-86
2022/09/22 04:52:14;;;;;;;;;;;;;;;11.03;100.00;98753.55;1764421;80;20376;-86
2022/09/22 04:54:40;;;;;;;;;;;;;;;11.05;100.00;98750.84;1765582;79;20291;-86
2022/09/22 04:57:13;;;;;;;;;;;;;;;11.05;100.00;98749.06;1765903;79;24528;-86
2022/09/22 04:59:47;;;;;;;;;;;;;;;11.09;100.00;98750.52;1765310;79;22072;-85
2022/09/22 05:02:14;;;;;;;;;;;;;;;11.09;100.00;98749.22;1759584;79;26205;-85
2022/09/22 05:04:46;;;;;;;;;;;;;;;11.05;100.00;98752.98;1764033;79;24832;-89
2022/09/22 05:07:13;;;;;;;;;;;;;;;11.01;100.00;98752.83;1771237;79;20233;-90
2022/09/22 05:09:40;;;;;;;;;;;;;;;11.00;100.00;98751.15;1753162;79;25522;-85
2022/09/22 05:12:05;;;;;;;;;;;;;;;11.02;100.00;98752.36;1757105;79;20275;-85
2022/09/22 05:14:39;;;;;;;;;;;;;;;11.02;100.00;98759.72;1693688;82;20987;-85
2022/09/22 05:17:05;;;;;;;;;;;;;;;10.97;100.00;98755.27;1761144;79;24625;-85
2022/09/22 05:19:34;;;;;;;;;;;;;;;10.98;100.00;98758.72;1767143;79;20804;-85
2022/09/22 05:22:00;;;;;;;;;;;;;;;10.99;100.00;98758.63;1762022;79;24566;-85
2022/09/22 05:24:26;;;;;;;;;;;;;;;10.99;100.00;98758.63;1753054;80;22052;-85
2022/09/22 05:26:53;;;;;;;;;;;;;;;10.97;100.00;98764.42;1765215;79;21993;-85
2022/09/22 05:29:19;;;;;;;;;;;;;;;10.97;100.00;98759.19;1758207;80;24523;-85
2022/09/22 05:31:45;;;;;;;;;;;;;;;10.95;100.00;98758.94;1761442;79;20983;-88
2022/09/22 05:34:11;;;;;;;;;;;;;;;10.96;100.00;98768.02;1759954;79;24034;-88
2022/09/22 05:36:37;;;;;;;;;;;;;;;10.99;100.00;98763.87;1760874;79;22134;-88
2022/09/22 05:39:05;;;;;;;;;;;;;;;10.98;100.00;98757.41;1766104;79;26105;-89
2022/09/22 05:41:33;;;;;;;;;;;;;;;10.92;100.00;98759.97;1757947;80;24742;-89
2022/09/22 05:43:59;;;;;;;;;;;;;;;11.02;100.00;98762.84;1761040;79;20250;-89
2022/09/22 05:46:25;;;;;;;;;;;;;;;11.00;100.00;98760.31;1764202;79;20727;-89
2022/09/22 05:48:51;;;;;;;;;;;;;;;10.98;100.00;98765.27;1765126;79;20309;-88
2022/09/22 05:51:23;;;;;;;;;;;;;;;10.91;100.00;98766.14;1763730;79;20787;-85
2022/09/22 05:53:49;;;;;;;;;;;;;;;10.83;100.00;98771.90;1759712;79;24449;-85
2022/09/22 05:56:17;;;;;;;;;;;;;;;10.91;100.00;98766.14;1767815;79;20295;-85
2022/09/22 05:58:43;;;;;;;;;;;;;;;10.98;100.00;98766.58;1765590;79;24523;-85
2022/09/22 06:01:08;;;;;;;;;;;;;;;11.06;100.00;98761.22;1757757;79;20308;-85
2022/09/22 06:03:36;;;;;;;;;;;;;;;11.05;100.00;98765.24;1767383;79;20942;-85
2022/09/22 06:06:03;;;;;;;;;;;;;;;10.92;100.00;98761.27;1761363;79;24497;-85
2022/09/22 06:08:30;;;;;;;;;;;;;;;10.81;100.00;98768.53;1757766;80;20198;-85
2022/09/22 06:11:01;;;;;;;;;;;;;;;10.65;100.00;98771.77;1765257;79;24687;-85
2022/09/22 06:13:28;;;;;;;;;;;;;;;10.60;100.00;98771.23;1764353;79;22834;-86
2022/09/22 06:15:54;;;;;;;;;;;;;;;10.65;100.00;98779.63;1764373;79;26637;-85
2022/09/22 06:18:21;;;;;;;;;;;;;;;10.74;100.00;98779.52;1760377;78;20270;-85
2022/09/22 06:20:48;;;;;;;;;;;;;;;10.70;100.00;98764.46;1767253;80;20218;-86
2022/09/22 06:23:14;;;;;;;;;;;;;;;10.87;100.00;98779.91;1759876;79;24512;-87
2022/09/22 06:25:57;;;;;;;;;;;;;;;10.99;100.00;98776.96;1761246;79;22047;-89
2022/09/22 06:28:23;;;;;;;;;;;;;;;11.10;100.00;98777.56;1760452;79;27015;-89
2022/09/22 06:30:56;;;;;;;;;;;;;;;11.20;100.00;98782.55;1769086;79;20897;-88
2022/09/22 06:33:22;;;;;;;;;;;;;;;11.19;100.00;98783.02;1763787;79;20177;-89
2022/09/22 06:35:49;;;;;;;;;;;;;;;11.13;100.00;98787.81;1758883;80;24545;-89
2022/09/22 06:38:15;;;;;;;;;;;;;;;11.04;100.00;98789.28;1744532;80;22037;-89
2022/09/22 06:40:47;;;;;;;;;;;;;;;10.98;100.00;98797.53;1746534;81;26008;-89
2022/09/22 06:43:21;;;;;;;;;;;;;;;11.00;100.00;98798.75;1748142;80;24447;-89
2022/09/22 06:45:45;;;;;;;;;;;;;;;11.06;100.00;98799.66;1745980;80;20252;-89
2022/09/22 06:48:11;;;;;;;;;;;;;;;11.11;100.00;98793.65;1746452;80;25324;-89
2022/09/22 06:50:39;;;;;;;;;;;;;;;11.13;100.00;98785.20;1746315;80;22051;-89
2022/09/22 06:53:06;;;;;;;;;;;;;;;11.12;100.00;98796.64;1746353;80;26197;-89
2022/09/22 06:55:36;;;;;;;;;;;;;;;11.04;100.00;98797.60;1715507;80;25382;-89
2022/09/22 06:58:02;;;;;;;;;;;;;;;11.12;100.00;98801.41;1711228;82;20181;-89
2022/09/22 07:00:32;;;;;;;;;;;;;;;11.20;100.00;98797.80;1747461;80;20333;-89
2022/09/22 07:03:04;;;;;;;;;;;;;;;11.27;100.00;98806.94;1746779;80;22037;-89
2022/09/22 07:05:30;;;;;;;;;;;;;;;11.27;100.00;98808.25;1750245;80;25972;-86
2022/09/22 07:07:57;;;;;;;;;;;;;;;11.17;100.00;98799.80;1747605;81;24645;-88
2022/09/22 07:10:24;;;;;;;;;;;;;;;11.09;100.00;98800.29;1742978;80;20218;-86
2022/09/22 07:12:49;;;;;;;;;;;;;;;11.12;100.00;98801.88;1744310;80;25333;-89
2022/09/22 07:15:15;;;;;;;;;;;;;;;11.14;100.00;98802.13;1745295;80;20371;-89
2022/09/22 07:17:41;;;;;;;;;;;;;;;11.23;100.00;98808.09;1748763;80;20867;-89
2022/09/22 07:20:07;;;;;;;;;;;;;;;11.33;100.00;98806.53;1747123;80;20282;-86
2022/09/22 07:22:38;;;;;;;;;;;;;;;11.39;100.00;98807.91;1747987;80;20849;-86
2022/09/22 07:25:05;;;;;;;;;;;;;;;11.36;100.00;98802.84;1712255;82;24627;-86
2022/09/22 07:27:38;;;;;;;;;;;;;;;11.26;100.00;98803.10;1696244;83;22083;-86
2022/09/22 07:30:05;;;;;;;;;;;;;;;11.35;100.00;98809.53;1665562;84;26204;-85
2022/09/22 07:32:34;;;;;;;;;;;;;;;11.44;100.00;98811.52;1665107;84;24482;-89
2022/09/22 07:35:04;;;;;;;;;;;;;;;11.60;100.00;98819.55;1690895;83;20305;-89
2022/09/22 07:37:32;;;;;;;;;;;;;;;11.67;100.00;98820.80;1759133;79;24808;-89
2022/09/22 07:40:02;;;;;;;;;;;;;;;11.70;100.00;98823.70;1763700;79;21994;-90
2022/09/22 07:42:28;;;;;;;;;;;;;;;11.75;100.00;98824.25;1764511;79;26175;-89
2022/09/22 07:45:12;;;;;;;;;;;;;;;11.80;100.00;98829.17;1765010;79;20248;-89
2022/09/22 07:50:11;;;;;;;;;;;;;;;11.87;100.00;98827.82;1712409;79;24557;-89
2022/09/22 07:52:41;;;;;;;;;;;;;;;11.85;100.00;98829.23;1760602;79;22198;-89
2022/09/22 07:55:08;;;;;;;;;;;;;;;11.86;100.00;98829.60;1763001;79;26998;-86
2022/09/22 07:57:35;;;;;;;;;;;;;;;11.85;100.00;98830.54;1766246;79;24401;-86
2022/09/22 08:00:01;;;;;;;;;;;;;;;11.83;100.00;98830.30;1756322;79;20261;-89
2022/09/22 08:02:33;;;;;;;;;;;;;;;11.86;100.00;98832.69;1768914;79;20747;-89
2022/09/22 08:05:02;;;;;;;;;;;;;;;11.86;100.00;98835.31;1764952;79;22068;-89
2022/09/22 08:07:45;;;;;;;;;;;;;;;11.75;100.00;98841.30;1765326;79;26012;-90
2022/09/22 08:10:22;;;;;;;;;;;;;;;11.68;100.00;98847.39;1755534;80;25554;-89
2022/09/22 08:12:53;;;;;;;;;;;;;;;11.65;100.00;98850.70;1762712;80;20169;-90
2022/09/22 08:15:22;;;;;;;;;;;;;;;11.55;100.00;98851.80;1763464;80;24524;-89
2022/09/22 08:17:57;;;;;;;;;;;;;;;11.39;100.00;98854.23;1762079;79;21955;-90
2022/09/22 08:20:27;;;;;;;;;;;;;;;11.33;100.00;98849.77;1763830;79;25983;-90
2022/09/22 08:22:56;;;;;;;;;;;;;;;11.36;100.00;98847.40;1761385;79;24497;-90
2022/09/22 08:25:24;;;;;;;;;;;;;;;11.44;100.00;98846.90;1762881;79;20245;-90
2022/09/22 08:27:56;;;;;;;;;;;;;;;11.49;100.00;98846.12;1762466;79;25038;-90
2022/09/22 08:30:25;;;;;;;;;;;;;;;11.56;100.00;98848.23;1762374;79;22036;-89
2022/09/22 08:32:52;;;;;;;;;;;;;;;11.67;100.00;98852.76;1754692;80;27319;-89
2022/09/22 08:35:19;;;;;;;;;;;;;;;11.80;100.00;98843.13;1763704;80;25320;-89
2022/09/22 08:37:47;;;;;;;;;;;;;;;11.87;100.00;98848.80;1769763;79;20392;-90
2022/09/22 08:40:17;;;;;;;;;;;;;;;11.92;100.00;98850.63;1764908;80;24583;-90
2022/09/22 08:42:44;;;;;;;;;;;;;;;11.96;100.00;98854.72;1766469;80;23795;-86
2022/09/22 08:45:12;;;;;;;;;;;;;;;12.01;100.00;98853.92;1765767;79;26143;-86
2022/09/22 08:53:13;;;;;;;;;;;;;;;12.08;100.00;98848.63;1765543;79;24598;-86
2022/09/22 08:55:42;;;;;;;;;;;;;;;11.99;100.00;98846.19;1766926;79;23763;-87
2022/09/22 08:58:18;;;;;;;;;;;;;;;12.07;100.00;98842.55;1764394;79;26609;-86
2022/09/22 09:00:46;;;;;;;;;;;;;;;12.19;100.00;98843.95;1766305;79;24478;-86
2022/09/22 09:03:26;;;;;;;;;;;;;;;12.10;100.00;98839.73;1763790;78;20219;-86
2022/09/22 09:05:59;;;;;;;;;;;;;;;12.22;100.00;98839.81;1728589;79;24618;-86
2022/09/22 09:08:27;;;;;;;;;;;;;;;12.34;100.00;98849.42;1713484;81;22072;-87
2022/09/22 09:10:57;;;;;;;;;;;;;;;12.52;100.00;98842.41;1755604;79;26887;-86
2022/09/22 09:13:28;;;;;;;;;;;;;;;12.61;100.00;98841.38;1769831;80;24541;-86
2022/09/22 09:16:00;;;;;;;;;;;;;;;12.69;100.00;98845.16;1747118;80;20240;-86
2022/09/22 09:18:31;;;;;;;;;;;;;;;12.62;100.00;98834.72;1761895;79;24636;-86
2022/09/22 09:20:59;;;;;;;;;;;;;;;12.71;100.00;98831.92;1766845;79;22068;-87
2022/09/22 09:23:30;;;;;;;;;;;;;;;12.69;100.00;98832.02;1765554;79;26071;-86
2022/09/22 09:25:57;;;;;;;;;;;;;;;12.48;100.00;98825.69;1766273;80;24438;-87
2022/09/22 09:28:30;;;;;;;;;;;;;;;12.47;100.00;98827.94;1771297;79;20213;-87
2022/09/22 09:31:16;;;;;;;;;;;;;;;12.49;100.00;98816.87;1767671;79;24556;-89
2022/09/22 09:34:00;;;;;;;;;;;;;;;12.26;100.00;98817.18;1766878;80;22071;-89
2022/09/22 09:39:44;;;;;;;;;;;;;;;12.34;100.00;98826.65;1755622;80;20537;-90
2022/09/22 09:42:18;;;;;;;;;;;;;;;12.44;100.00;98826.36;1765460;80;20202;-89
2022/09/22 09:44:45;;;;;;;;;;;;;;;12.53;100.00;98827.50;1764342;80;24636;-89
2022/09/22 09:47:26;;;;;;;;;;;;;;;12.58;100.00;98818.35;1765421;80;22011;-89
2022/09/22 09:49:53;;;;;;;;;;;;;;;12.50;100.00;98821.14;1766999;80;25989;-89
2022/09/22 09:52:37;;;;;;;;;;;;;;;12.39;100.00;98821.06;1767165;80;24394;-89
2022/09/22 09:55:05;;;;;;;;;;;;;;;12.39;100.00;98821.06;1769573;80;20471;-89
2022/09/22 09:57:42;;;;;;;;;;;;;;;12.45;100.00;98827.20;1768521;80;24740;-90
2022/09/22 10:00:31;;;;;;;;;;;;;;;12.54;100.00;98825.25;1766682;80;22055;-90
2022/09/22 10:03:19;;;;;;;;;;;;;;;12.55;100.00;98822.96;1759345;80;26043;-90
2022/09/22 10:05:49;;;;;;;;;;;;;;;12.70;100.00;98823.20;1762666;80;24528;-90
2022/09/22 10:08:23;;;;;;;;;;;;;;;12.81;100.00;98819.80;1763499;80;20501;-90
2022/09/22 10:11:07;;;;;;;;;;;;;;;12.75;100.00;98825.02;1769753;80;25143;-91
2022/09/22 10:13:47;;;;;;;;;;;;;;;12.77;100.00;98828.82;1769205;79;22052;-90
2022/09/22 10:16:30;;;;;;;;;;;;;;;12.92;100.00;98820.69;1765811;79;26050;-90
2022/09/22 10:19:01;;;;;;;;;;;;;;;13.10;100.00;98818.95;1767735;80;24339;-90
2022/09/22 10:21:31;;;;;;;;;;;;;;;13.35;100.00;98810.97;1747598;81;20168;-91
2022/09/22 10:23:58;;;;;;;;;;;;;;;13.51;100.00;98813.27;1766029;81;24559;-90
2022/09/22 10:26:51;;;;;;;;;;;;;;;13.66;100.00;98812.94;1758992;80;22056;-90
2022/09/22 10:29:35;;;;;;;;;;;;;;;13.80;100.00;98814.02;1769469;80;26165;-90
2022/09/22 10:32:18;;;;;;;;;;;;;;;13.86;100.00;98819.77;1768906;81;24481;-91
2022/09/22 10:41:25;;;;;;;;;;;;;;;13.84;100.00;98827.80;1744335;82;22775;-86
2022/09/22 10:43:47;;;;;;;;;;;;;;;13.83;100.00;98825.65;1755678;80;26065;-86
2022/09/22 10:46:16;;;;;;;;;;;;;;;13.72;100.00;98824.31;1753303;80;24515;-86
2022/09/22 10:48:43;;;;;;;;;;;;;;;13.60;100.00;98817.35;1712947;82;20854;-86
2022/09/22 10:51:13;;;;;;;;;;;;;;;13.72;100.00;98818.21;1681426;84;24595;-85
2022/09/22 10:53:44;;;;;;;;;;;;;;;13.68;100.00;98814.15;1708889;82;22048;-86
2022/09/22 10:56:22;;;;;;;;;;;;;;;13.54;100.00;98810.40;1682916;83;26194;-86
2022/09/22 10:59:09;;;;;;;;;;;;;;;13.47;100.00;98807.42;1711605;82;25272;-86
2022/09/22 11:01:46;;;;;;;;;;;;;;;13.38;100.00;98804.98;1681259;83;20216;-90
2022/09/22 11:04:20;;;;;;;;;;;;;;;13.36;100.00;98805.57;1710662;82;24652;-90
2022/09/22 11:12:51;;;;;;;;;;;;;;;13.81;100.00;98798.61;1681014;83;23922;-90
2022/09/22 11:15:36;;;;;;;;;;;;;;;13.98;100.00;98803.87;1709532;82;20226;-90
2022/09/22 11:18:19;;;;;;;;;;;;;;;14.16;100.00;98797.66;1675481;84;24610;-89
2022/09/22 11:20:50;;;;;;;;;;;;;;;14.32;100.00;98796.81;1660972;85;21988;-85
2022/09/22 11:23:20;;;;;;;;;;;;;;;14.45;100.00;98794.92;1663086;84;26055;-86
2022/09/22 11:26:04;;;;;;;;;;;;;;;14.55;100.00;98791.06;1707950;82;25159;-85
2022/09/22 11:28:35;;;;;;;;;;;;;;;14.58;100.00;98789.01;1681557;84;20233;-85
2022/09/22 11:31:01;;;;;;;;;;;;;;;14.50;100.00;98782.22;1712701;82;24710;-85
2022/09/22 11:33:29;;;;;;;;;;;;;;;14.45;100.00;98790.13;1696076;82;20535;-85
2022/09/22 11:36:15;;;;;;;;;;;;;;;14.40;100.00;98783.08;1680953;83;26062;-86
2022/09/22 11:38:52;;;;;;;;;;;;;;;14.34;100.00;98784.38;1681000;84;24489;-86
2022/09/22 11:41:24;;;;;;;;;;;;;;;14.24;100.00;98788.19;1725214;81;20314;-86
2022/09/22 11:43:58;;;;;;;;;;;;;;;14.12;100.00;98785.23;1703882;82;24682;-86
2022/09/22 11:46:26;;;;;;;;;;;;;;;14.00;100.00;98782.72;1695651;82;22001;-86
2022/09/22 11:48:53;;;;;;;;;;;;;;;13.98;100.00;98779.36;1723340;81;26822;-86
2022/09/22 11:51:38;;;;;;;;;;;;;;;13.98;100.00;98772.78;1701600;82;24498;-86
2022/09/22 11:54:06;;;;;;;;;;;;;;;13.94;100.00;98769.56;1727512;81;20186;-85
2022/09/22 11:56:33;;;;;;;;;;;;;;;13.96;100.00;98778.19;1697455;83;24870;-86
2022/09/22 11:59:01;;;;;;;;;;;;;;;14.00;100.00;98774.34;1699196;82;22105;-86
2022/09/22 12:01:29;;;;;;;;;;;;;;;14.05;100.00;98770.03;1732714;81;26920;-86
2022/09/22 12:04:16;;;;;;;;;;;;;;;14.09;100.00;98769.67;1706072;83;24518;-91
2022/09/22 12:06:46;;;;;;;;;;;;;;;14.14;100.00;98773.25;1706351;83;20237;-91
2022/09/22 12:09:17;;;;;;;;;;;;;;;14.22;100.00;98774.81;1759089;81;24631;-91
2022/09/22 12:11:51;;;;;;;;;;;;;;;14.30;100.00;98767.13;1763087;80;22057;-91
2022/09/22 12:14:17;;;;;;;;;;;;;;;14.36;100.00;98771.91;1759881;80;26046;-90
2022/09/22 12:16:49;;;;;;;;;;;;;;;14.41;100.00;98773.72;1765305;80;24437;-90
2022/09/22 12:19:40;;;;;;;;;;;;;;;14.45;100.00;98759.84;1759610;79;20247;-89
2022/09/22 12:22:17;;;;;;;;;;;;;;;14.48;100.00;98758.27;1767519;80;24515;-90
2022/09/22 12:24:48;;;;;;;;;;;;;;;14.45;100.00;98766.43;1759161;80;22221;-90
2022/09/22 12:27:34;;;;;;;;;;;;;;;14.50;100.00;98757.20;1756142;80;26055;-89
2022/09/22 12:30:02;;;;;;;;;;;;;;;14.52;100.00;98757.89;1757498;81;24492;-90
2022/09/22 12:32:38;;;;;;;;;;;;;;;14.63;100.00;98760.98;1771499;80;20486;-89
2022/09/22 12:35:23;;;;;;;;;;;;;;;14.64;100.00;98749.01;1767799;80;25293;-90
2022/09/22 12:38:01;;;;;;;;;;;;;;;14.63;100.00;98751.75;1761769;80;22067;-90
2022/09/22 12:40:42;;;;;;;;;;;;;;;14.54;100.00;98750.72;1756883;80;26101;-90
2022/09/22 12:43:14;;;;;;;;;;;;;;;14.49;100.00;98743.67;1746649;80;24613;-90
2022/09/22 12:45:47;;;;;;;;;;;;;;;14.56;100.00;98738.24;1767412;80;20226;-91
2022/09/22 12:48:21;;;;;;;;;;;;;;;14.65;100.00;98736.20;1760366;80;24219;-90
2022/09/22 12:50:59;;;;;;;;;;;;;;;14.64;100.00;98737.16;1766949;79;22030;-90
2022/09/22 12:53:28;;;;;;;;;;;;;;;14.68;100.00;98740.84;1765191;80;25380;-90
2022/09/22 12:55:55;;;;;;;;;;;;;;;14.58;100.00;98730.22;1766188;80;25300;-90
2022/09/22 12:58:23;;;;;;;;;;;;;;;14.65;100.00;98738.83;1759930;81;20325;-90
2022/09/22 13:00:50;;;;;;;;;;;;;;;14.77;100.00;98734.36;1761256;80;24684;-89
2022/09/22 13:03:29;;;;;;;;;;;;;;;14.76;100.00;98743.70;1770863;79;22034;-89
2022/09/22 13:06:02;;;;;;;;;;;;;;;14.76;100.00;98743.22;1762424;79;26045;-89
2022/09/22 13:08:36;;;;;;;;;;;;;;;14.88;100.00;98737.42;1762048;80;24574;-90
2022/09/22 13:11:03;;;;;;;;;;;;;;;14.99;100.00;98730.79;1758409;79;20215;-90
2022/09/22 13:13:32;;;;;;;;;;;;;;;14.99;100.00;98730.79;1759938;79;24672;-89
2022/09/22 13:16:05;;;;;;;;;;;;;;;14.95;100.00;98728.87;1765031;80;22889;-89
2022/09/22 13:18:38;;;;;;;;;;;;;;;14.94;100.00;98729.02;1763831;79;25990;-90